sensor_id;sensor_type;location;lat;lon;timestamp;temperature;humidity
1786;DHT22;890;48.158;11.540;2023-11-21T00:01:17;9.10;88.70
1786;DHT22;890;48.158;11.540;2023-11-21T00:03:43;9.10;88.90
1786;DHT22;890;48.158;11.540;2023-11-21T00:06:09;9.00;89.20
1786;DHT22;890;48.158;11.540;2023-11-21T00:08:35;9.00;89.70
1786;DHT22;890;48.158;11.540;2023-11-21T00:11:01;8.90;90.10
1786;DHT22;890;48.158;11.540;2023-11-21T00:13:26;8.90;90.20
1786;DHT22;890;48.158;11.540;2023-11-21T00:15:52;8.80;90.60
1786;DHT22;890;48.158;11.540;2023-11-21T00:18:18;8.80;90.50
1786;DHT22;890;48.158;11.540;2023-11-21T00:20:44;8.70;90.80
1786;DHT22;890;48.158;11.540;2023-11-21T00:23:10;8.70;91.00
1786;DHT22;890;48.158;11.540;2023-11-21T00:25:36;8.70;91.10
1786;DHT22;890;48.158;11.540;2023-11-21T00:28:01;8.70;91.20
1786;DHT22;890;48.158;11.540;2023-11-21T00:30:27;8.70;91.30
1786;DHT22;890;48.158;11.540;2023-11-21T00:32:54;8.80;91.50
1786;DHT22;890;48.158;11.540;2023-11-21T00:35:20;8.80;91.40
1786;DHT22;890;48.158;11.540;2023-11-21T00:37:45;8.90;91.50
1786;DHT22;890;48.158;11.540;2023-11-21T00:40:12;8.90;91.50
1786;DHT22;890;48.158;11.540;2023-11-21T00:42:37;8.90;91.50
1786;DHT22;890;48.158;11.540;2023-11-21T00:45:03;8.90;91.60
1786;DHT22;890;48.158;11.540;2023-11-21T00:47:29;8.90;91.50
1786;DHT22;890;48.158;11.540;2023-11-21T00:49:55;9.00;91.80
1786;DHT22;890;48.158;11.540;2023-11-21T00:52:20;9.00;91.80
1786;DHT22;890;48.158;11.540;2023-11-21T00:54:46;9.10;92.00
1786;DHT22;890;48.158;11.540;2023-11-21T00:57:13;9.10;92.00
1786;DHT22;890;48.158;11.540;2023-11-21T00:59:39;9.20;92.00
1786;DHT22;890;48.158;11.540;2023-11-21T01:02:05;9.30;91.90
1786;DHT22;890;48.158;11.540;2023-11-21T01:04:30;9.20;91.90
1786;DHT22;890;48.158;11.540;2023-11-21T01:06:57;9.40;92.00
1786;DHT22;890;48.158;11.540;2023-11-21T01:09:23;9.40;91.90
1786;DHT22;890;48.158;11.540;2023-11-21T01:11:49;9.40;91.90
1786;DHT22;890;48.158;11.540;2023-11-21T01:14:15;9.40;91.90
1786;DHT22;890;48.158;11.540;2023-11-21T01:16:43;9.30;91.90
1786;DHT22;890;48.158;11.540;2023-11-21T01:19:08;9.30;91.90
1786;DHT22;890;48.158;11.540;2023-11-21T01:21:34;9.20;92.00
1786;DHT22;890;48.158;11.540;2023-11-21T01:24:00;9.10;92.00
1786;DHT22;890;48.158;11.540;2023-11-21T01:26:25;9.10;92.20
1786;DHT22;890;48.158;11.540;2023-11-21T01:28:51;9.10;92.20
1786;DHT22;890;48.158;11.540;2023-11-21T01:31:16;9.00;92.30
1786;DHT22;890;48.158;11.540;2023-11-21T01:33:42;9.00;92.50
1786;DHT22;890;48.158;11.540;2023-11-21T01:36:08;9.00;92.60
1786;DHT22;890;48.158;11.540;2023-11-21T01:38:34;9.00;92.70
1786;DHT22;890;48.158;11.540;2023-11-21T01:41:00;9.10;92.70
1786;DHT22;890;48.158;11.540;2023-11-21T01:43:26;9.10;92.70
1786;DHT22;890;48.158;11.540;2023-11-21T01:45:54;9.10;92.80
1786;DHT22;890;48.158;11.540;2023-11-21T01:48:22;9.10;92.70
1786;DHT22;890;48.158;11.540;2023-11-21T01:50:48;9.10;92.70
1786;DHT22;890;48.158;11.540;2023-11-21T01:53:14;9.20;92.90
1786;DHT22;890;48.158;11.540;2023-11-21T01:55:41;9.20;93.00
1786;DHT22;890;48.158;11.540;2023-11-21T01:58:07;9.30;92.80
1786;DHT22;890;48.158;11.540;2023-11-21T02:00:34;9.40;92.90
1786;DHT22;890;48.158;11.540;2023-11-21T02:02:59;9.40;92.90
1786;DHT22;890;48.158;11.540;2023-11-21T02:05:25;9.40;92.80
1786;DHT22;890;48.158;11.540;2023-11-21T02:07:51;9.40;92.70
1786;DHT22;890;48.158;11.540;2023-11-21T02:10:18;9.40;92.80
1786;DHT22;890;48.158;11.540;2023-11-21T02:12:48;9.40;92.70
1786;DHT22;890;48.158;11.540;2023-11-21T02:15:16;9.40;92.50
1786;DHT22;890;48.158;11.540;2023-11-21T02:17:46;9.30;92.20
1786;DHT22;890;48.158;11.540;2023-11-21T02:20:19;9.20;92.20
1786;DHT22;890;48.158;11.540;2023-11-21T02:22:55;9.20;92.20
1786;DHT22;890;48.158;11.540;2023-11-21T02:25:32;9.10;92.30
1786;DHT22;890;48.158;11.540;2023-11-21T02:27:59;9.20;92.50
1786;DHT22;890;48.158;11.540;2023-11-21T02:30:26;9.20;92.50
1786;DHT22;890;48.158;11.540;2023-11-21T02:32:53;9.10;92.70
1786;DHT22;890;48.158;11.540;2023-11-21T02:35:20;9.00;92.90
1786;DHT22;890;48.158;11.540;2023-11-21T02:37:47;8.90;92.90
1786;DHT22;890;48.158;11.540;2023-11-21T02:40:12;8.80;93.20
1786;DHT22;890;48.158;11.540;2023-11-21T02:42:39;8.70;93.50
1786;DHT22;890;48.158;11.540;2023-11-21T02:45:07;8.70;93.80
1786;DHT22;890;48.158;11.540;2023-11-21T02:47:32;8.80;94.00
1786;DHT22;890;48.158;11.540;2023-11-21T02:49:59;8.80;94.00
1786;DHT22;890;48.158;11.540;2023-11-21T02:52:24;8.80;94.00
1786;DHT22;890;48.158;11.540;2023-11-21T02:54:50;8.80;94.00
1786;DHT22;890;48.158;11.540;2023-11-21T02:57:16;8.80;94.10
1786;DHT22;890;48.158;11.540;2023-11-21T02:59:42;8.80;94.20
1786;DHT22;890;48.158;11.540;2023-11-21T03:02:07;8.80;94.30
1786;DHT22;890;48.158;11.540;2023-11-21T03:04:34;8.80;94.30
1786;DHT22;890;48.158;11.540;2023-11-21T03:07:00;8.80;94.40
1786;DHT22;890;48.158;11.540;2023-11-21T03:09:26;8.80;94.40
1786;DHT22;890;48.158;11.540;2023-11-21T03:11:52;8.80;94.50
1786;DHT22;890;48.158;11.540;2023-11-21T03:14:18;8.80;94.60
1786;DHT22;890;48.158;11.540;2023-11-21T03:16:43;8.90;94.80
1786;DHT22;890;48.158;11.540;2023-11-21T03:19:11;8.90;94.90
1786;DHT22;890;48.158;11.540;2023-11-21T03:21:36;8.80;94.90
1786;DHT22;890;48.158;11.540;2023-11-21T03:24:02;8.80;95.00
1786;DHT22;890;48.158;11.540;2023-11-21T03:26:28;8.90;94.90
1786;DHT22;890;48.158;11.540;2023-11-21T03:28:55;8.80;94.80
1786;DHT22;890;48.158;11.540;2023-11-21T03:31:21;8.80;94.90
1786;DHT22;890;48.158;11.540;2023-11-21T03:33:46;8.80;95.00
1786;DHT22;890;48.158;11.540;2023-11-21T03:36:13;8.80;95.20
1786;DHT22;890;48.158;11.540;2023-11-21T03:38:40;8.80;95.20
1786;DHT22;890;48.158;11.540;2023-11-21T03:41:06;8.80;95.30
1786;DHT22;890;48.158;11.540;2023-11-21T03:43:31;8.80;95.30
1786;DHT22;890;48.158;11.540;2023-11-21T03:45:57;8.80;95.30
1786;DHT22;890;48.158;11.540;2023-11-21T03:48:23;8.70;95.30
1786;DHT22;890;48.158;11.540;2023-11-21T03:50:48;8.90;95.50
1786;DHT22;890;48.158;11.540;2023-11-21T03:53:14;8.70;95.50
1786;DHT22;890;48.158;11.540;2023-11-21T03:55:40;8.70;95.60
1786;DHT22;890;48.158;11.540;2023-11-21T03:58:05;8.70;95.60
1786;DHT22;890;48.158;11.540;2023-11-21T04:00:31;8.70;95.50
1786;DHT22;890;48.158;11.540;2023-11-21T04:02:56;8.60;95.50
1786;DHT22;890;48.158;11.540;2023-11-21T04:05:23;8.60;95.50
1786;DHT22;890;48.158;11.540;2023-11-21T04:07:49;7.70;95.10
1786;DHT22;890;48.158;11.540;2023-11-21T04:10:16;8.60;95.50
1786;DHT22;890;48.158;11.540;2023-11-21T04:12:42;8.60;95.50
1786;DHT22;890;48.158;11.540;2023-11-21T04:15:08;8.60;95.50
1786;DHT22;890;48.158;11.540;2023-11-21T04:17:34;8.60;95.60
1786;DHT22;890;48.158;11.540;2023-11-21T04:20:00;8.60;95.60
1786;DHT22;890;48.158;11.540;2023-11-21T04:22:26;8.60;95.60
1786;DHT22;890;48.158;11.540;2023-11-21T04:24:51;8.70;95.70
1786;DHT22;890;48.158;11.540;2023-11-21T04:27:17;8.70;95.70
1786;DHT22;890;48.158;11.540;2023-11-21T04:29:44;8.60;95.70
1786;DHT22;890;48.158;11.540;2023-11-21T04:32:09;8.70;95.70
1786;DHT22;890;48.158;11.540;2023-11-21T04:34:35;8.60;95.70
1786;DHT22;890;48.158;11.540;2023-11-21T04:37:00;8.60;95.80
1786;DHT22;890;48.158;11.540;2023-11-21T04:39:33;8.70;95.70
1786;DHT22;890;48.158;11.540;2023-11-21T04:41:58;8.70;95.70
1786;DHT22;890;48.158;11.540;2023-11-21T04:44:24;8.70;95.60
1786;DHT22;890;48.158;11.540;2023-11-21T04:46:49;8.70;95.50
1786;DHT22;890;48.158;11.540;2023-11-21T04:49:15;8.70;95.60
1786;DHT22;890;48.158;11.540;2023-11-21T04:51:41;8.70;95.60
1786;DHT22;890;48.158;11.540;2023-11-21T04:54:06;8.70;95.70
1786;DHT22;890;48.158;11.540;2023-11-21T04:56:32;8.70;95.60
1786;DHT22;890;48.158;11.540;2023-11-21T04:58:57;8.70;95.70
1786;DHT22;890;48.158;11.540;2023-11-21T05:01:23;8.70;95.80
1786;DHT22;890;48.158;11.540;2023-11-21T05:03:49;8.70;95.80
1786;DHT22;890;48.158;11.540;2023-11-21T05:06:14;9.20;96.10
1786;DHT22;890;48.158;11.540;2023-11-21T05:08:40;8.60;95.90
1786;DHT22;890;48.158;11.540;2023-11-21T05:11:06;8.60;96.00
1786;DHT22;890;48.158;11.540;2023-11-21T05:13:36;8.60;96.10
1786;DHT22;890;48.158;11.540;2023-11-21T05:16:02;8.60;96.10
1786;DHT22;890;48.158;11.540;2023-11-21T05:18:29;8.50;96.10
1786;DHT22;890;48.158;11.540;2023-11-21T05:20:55;8.50;96.20
1786;DHT22;890;48.158;11.540;2023-11-21T05:23:21;8.50;96.30
1786;DHT22;890;48.158;11.540;2023-11-21T05:25:47;8.50;96.40
1786;DHT22;890;48.158;11.540;2023-11-21T05:28:12;8.60;96.40
1786;DHT22;890;48.158;11.540;2023-11-21T05:30:38;8.50;96.30
1786;DHT22;890;48.158;11.540;2023-11-21T05:33:05;8.50;96.40
1786;DHT22;890;48.158;11.540;2023-11-21T05:35:30;8.50;96.50
1786;DHT22;890;48.158;11.540;2023-11-21T05:37:56;8.50;96.50
1786;DHT22;890;48.158;11.540;2023-11-21T05:40:22;8.60;96.60
1786;DHT22;890;48.158;11.540;2023-11-21T05:42:48;8.60;96.50
1786;DHT22;890;48.158;11.540;2023-11-21T05:45:14;8.60;96.40
1786;DHT22;890;48.158;11.540;2023-11-21T05:47:42;8.60;96.50
1786;DHT22;890;48.158;11.540;2023-11-21T05:50:09;8.60;96.40
1786;DHT22;890;48.158;11.540;2023-11-21T05:52:41;8.60;96.50
1786;DHT22;890;48.158;11.540;2023-11-21T05:55:07;8.60;96.30
1786;DHT22;890;48.158;11.540;2023-11-21T05:57:34;8.60;96.20
1786;DHT22;890;48.158;11.540;2023-11-21T06:00:05;8.60;96.10
1786;DHT22;890;48.158;11.540;2023-11-21T06:02:46;8.60;96.20
1786;DHT22;890;48.158;11.540;2023-11-21T06:05:11;8.50;96.10
1786;DHT22;890;48.158;11.540;2023-11-21T06:07:37;8.50;96.00
1786;DHT22;890;48.158;11.540;2023-11-21T06:10:04;8.50;96.00
1786;DHT22;890;48.158;11.540;2023-11-21T06:12:37;8.40;96.00
1786;DHT22;890;48.158;11.540;2023-11-21T06:15:05;8.40;96.10
1786;DHT22;890;48.158;11.540;2023-11-21T06:17:34;8.40;96.10
1786;DHT22;890;48.158;11.540;2023-11-21T06:20:04;8.40;96.10
1786;DHT22;890;48.158;11.540;2023-11-21T06:22:44;8.40;96.30
1786;DHT22;890;48.158;11.540;2023-11-21T06:25:12;8.40;96.10
1786;DHT22;890;48.158;11.540;2023-11-21T06:27:45;8.50;96.20
1786;DHT22;890;48.158;11.540;2023-11-21T06:30:12;8.40;96.10
1786;DHT22;890;48.158;11.540;2023-11-21T06:32:39;8.40;96.00
1786;DHT22;890;48.158;11.540;2023-11-21T06:35:06;9.00;96.30
1786;DHT22;890;48.158;11.540;2023-11-21T06:37:33;8.40;96.20
1786;DHT22;890;48.158;11.540;2023-11-21T06:39:59;8.60;96.30
1786;DHT22;890;48.158;11.540;2023-11-21T06:42:26;8.60;96.10
1786;DHT22;890;48.158;11.540;2023-11-21T06:44:52;8.50;96.00
1786;DHT22;890;48.158;11.540;2023-11-21T06:47:19;8.50;96.30
1786;DHT22;890;48.158;11.540;2023-11-21T06:49:46;8.50;96.00
1786;DHT22;890;48.158;11.540;2023-11-21T06:52:13;8.50;96.10
1786;DHT22;890;48.158;11.540;2023-11-21T06:54:39;8.50;96.10
1786;DHT22;890;48.158;11.540;2023-11-21T06:57:05;8.60;96.00
1786;DHT22;890;48.158;11.540;2023-11-21T06:59:30;8.60;96.00
1786;DHT22;890;48.158;11.540;2023-11-21T07:01:56;8.60;96.00
1786;DHT22;890;48.158;11.540;2023-11-21T07:04:22;8.60;96.00
1786;DHT22;890;48.158;11.540;2023-11-21T07:06:48;8.70;95.90
1786;DHT22;890;48.158;11.540;2023-11-21T07:09:13;8.70;95.80
1786;DHT22;890;48.158;11.540;2023-11-21T07:11:39;8.70;95.90
1786;DHT22;890;48.158;11.540;2023-11-21T07:14:04;8.70;95.80
1786;DHT22;890;48.158;11.540;2023-11-21T07:16:35;8.70;95.80
1786;DHT22;890;48.158;11.540;2023-11-21T07:19:03;8.70;95.80
1786;DHT22;890;48.158;11.540;2023-11-21T07:21:35;8.80;95.70
1786;DHT22;890;48.158;11.540;2023-11-21T07:24:01;8.80;95.70
1786;DHT22;890;48.158;11.540;2023-11-21T07:26:27;8.80;95.50
1786;DHT22;890;48.158;11.540;2023-11-21T07:28:53;8.80;95.40
1786;DHT22;890;48.158;11.540;2023-11-21T07:31:19;8.80;95.30
1786;DHT22;890;48.158;11.540;2023-11-21T07:33:46;8.70;95.30
1786;DHT22;890;48.158;11.540;2023-11-21T07:36:15;8.90;95.30
1786;DHT22;890;48.158;11.540;2023-11-21T07:38:42;10.10;95.20
1786;DHT22;890;48.158;11.540;2023-11-21T07:41:08;8.80;95.10
1786;DHT22;890;48.158;11.540;2023-11-21T07:43:37;8.80;95.00
1786;DHT22;890;48.158;11.540;2023-11-21T07:46:03;8.80;95.10
1786;DHT22;890;48.158;11.540;2023-11-21T07:48:30;8.90;95.10
1786;DHT22;890;48.158;11.540;2023-11-21T07:50:57;8.90;95.10
1786;DHT22;890;48.158;11.540;2023-11-21T07:53:26;9.00;95.00
1786;DHT22;890;48.158;11.540;2023-11-21T07:55:54;9.10;95.30
1786;DHT22;890;48.158;11.540;2023-11-21T07:58:20;9.20;94.70
1786;DHT22;890;48.158;11.540;2023-11-21T08:00:46;9.20;94.60
1786;DHT22;890;48.158;11.540;2023-11-21T08:03:13;9.20;94.40
1786;DHT22;890;48.158;11.540;2023-11-21T08:05:39;9.20;94.30
1786;DHT22;890;48.158;11.540;2023-11-21T08:08:05;9.20;94.30
1786;DHT22;890;48.158;11.540;2023-11-21T08:10:30;9.20;94.30
1786;DHT22;890;48.158;11.540;2023-11-21T08:12:56;9.20;94.30
1786;DHT22;890;48.158;11.540;2023-11-21T08:15:22;9.10;94.10
1786;DHT22;890;48.158;11.540;2023-11-21T08:17:47;9.00;94.00
1786;DHT22;890;48.158;11.540;2023-11-21T08:20:13;9.00;94.00
1786;DHT22;890;48.158;11.540;2023-11-21T08:22:43;9.00;94.00
1786;DHT22;890;48.158;11.540;2023-11-21T08:25:09;9.10;94.00
1786;DHT22;890;48.158;11.540;2023-11-21T08:27:34;9.20;93.80
1786;DHT22;890;48.158;11.540;2023-11-21T08:30:01;9.20;93.70
1786;DHT22;890;48.158;11.540;2023-11-21T08:32:28;9.30;93.80
1786;DHT22;890;48.158;11.540;2023-11-21T08:34:55;9.40;93.60
1786;DHT22;890;48.158;11.540;2023-11-21T08:37:21;9.40;93.60
1786;DHT22;890;48.158;11.540;2023-11-21T08:39:47;9.50;93.60
1786;DHT22;890;48.158;11.540;2023-11-21T08:42:14;9.60;93.60
1786;DHT22;890;48.158;11.540;2023-11-21T08:44:40;9.70;93.40
1786;DHT22;890;48.158;11.540;2023-11-21T08:47:06;9.80;93.30
1786;DHT22;890;48.158;11.540;2023-11-21T08:49:32;9.70;93.20
1786;DHT22;890;48.158;11.540;2023-11-21T08:51:58;9.70;93.20
1786;DHT22;890;48.158;11.540;2023-11-21T08:54:25;9.70;93.20
1786;DHT22;890;48.158;11.540;2023-11-21T08:56:54;9.80;93.30
1786;DHT22;890;48.158;11.540;2023-11-21T08:59:21;9.90;93.40
1786;DHT22;890;48.158;11.540;2023-11-21T09:01:47;9.90;93.30
1786;DHT22;890;48.158;11.540;2023-11-21T09:04:12;9.90;93.40
1786;DHT22;890;48.158;11.540;2023-11-21T09:06:39;9.90;93.30
1786;DHT22;890;48.158;11.540;2023-11-21T09:09:05;9.90;93.20
1786;DHT22;890;48.158;11.540;2023-11-21T09:11:32;10.60;93.10
1786;DHT22;890;48.158;11.540;2023-11-21T09:13:59;10.20;92.90
1786;DHT22;890;48.158;11.540;2023-11-21T09:16:25;10.10;92.90
1786;DHT22;890;48.158;11.540;2023-11-21T09:18:51;10.00;92.80
1786;DHT22;890;48.158;11.540;2023-11-21T09:21:16;10.10;92.90
1786;DHT22;890;48.158;11.540;2023-11-21T09:23:44;10.10;92.80
1786;DHT22;890;48.158;11.540;2023-11-21T09:26:10;10.20;92.70
1786;DHT22;890;48.158;11.540;2023-11-21T09:28:35;10.20;92.70
1786;DHT22;890;48.158;11.540;2023-11-21T09:31:04;10.30;92.90
1786;DHT22;890;48.158;11.540;2023-11-21T09:33:33;10.20;92.60
1786;DHT22;890;48.158;11.540;2023-11-21T09:35:59;10.30;92.70
1786;DHT22;890;48.158;11.540;2023-11-21T09:38:25;10.30;92.70
1786;DHT22;890;48.158;11.540;2023-11-21T09:40:51;10.40;92.70
1786;DHT22;890;48.158;11.540;2023-11-21T09:43:18;10.50;92.50
1786;DHT22;890;48.158;11.540;2023-11-21T09:45:53;10.60;91.90
1786;DHT22;890;48.158;11.540;2023-11-21T09:48:20;10.80;91.60
1786;DHT22;890;48.158;11.540;2023-11-21T09:50:47;11.00;91.90
1786;DHT22;890;48.158;11.540;2023-11-21T09:53:21;11.40;92.90
1786;DHT22;890;48.158;11.540;2023-11-21T09:55:48;11.50;91.80
1786;DHT22;890;48.158;11.540;2023-11-21T09:58:15;11.70;91.10
1786;DHT22;890;48.158;11.540;2023-11-21T10:00:45;11.70;90.50
1786;DHT22;890;48.158;11.540;2023-11-21T10:03:11;11.80;90.10
1786;DHT22;890;48.158;11.540;2023-11-21T10:05:37;11.90;90.10
1786;DHT22;890;48.158;11.540;2023-11-21T10:08:10;12.10;90.40
1786;DHT22;890;48.158;11.540;2023-11-21T10:10:37;12.20;90.00
1786;DHT22;890;48.158;11.540;2023-11-21T10:13:05;12.00;89.10
1786;DHT22;890;48.158;11.540;2023-11-21T10:15:34;11.80;88.10
1786;DHT22;890;48.158;11.540;2023-11-21T10:18:03;11.50;88.00
1786;DHT22;890;48.158;11.540;2023-11-21T10:20:32;11.30;88.00
1786;DHT22;890;48.158;11.540;2023-11-21T10:22:59;11.10;87.80
1786;DHT22;890;48.158;11.540;2023-11-21T10:25:28;11.10;88.10
1786;DHT22;890;48.158;11.540;2023-11-21T10:28:02;11.00;88.30
1786;DHT22;890;48.158;11.540;2023-11-21T10:30:34;10.90;88.20
1786;DHT22;890;48.158;11.540;2023-11-21T10:33:04;10.90;88.90
1786;DHT22;890;48.158;11.540;2023-11-21T10:35:49;11.00;89.40
1786;DHT22;890;48.158;11.540;2023-11-21T10:38:20;11.00;89.00
1786;DHT22;890;48.158;11.540;2023-11-21T10:40:51;11.10;89.20
1786;DHT22;890;48.158;11.540;2023-11-21T10:43:17;11.20;88.80
1786;DHT22;890;48.158;11.540;2023-11-21T10:45:44;10.70;87.70
1786;DHT22;890;48.158;11.540;2023-11-21T10:48:11;11.20;87.90
1786;DHT22;890;48.158;11.540;2023-11-21T10:50:40;11.10;87.40
1786;DHT22;890;48.158;11.540;2023-11-21T10:53:06;11.00;87.40
1786;DHT22;890;48.158;11.540;2023-11-21T10:55:33;11.00;87.60
1786;DHT22;890;48.158;11.540;2023-11-21T10:58:01;10.80;87.50
1786;DHT22;890;48.158;11.540;2023-11-21T11:00:29;11.00;88.40
1786;DHT22;890;48.158;11.540;2023-11-21T11:02:55;11.10;89.10
1786;DHT22;890;48.158;11.540;2023-11-21T11:05:22;11.10;89.10
1786;DHT22;890;48.158;11.540;2023-11-21T11:07:51;11.20;89.50
1786;DHT22;890;48.158;11.540;2023-11-21T11:10:25;11.30;90.00
1786;DHT22;890;48.158;11.540;2023-11-21T11:12:53;11.40;90.00
1786;DHT22;890;48.158;11.540;2023-11-21T11:15:19;11.40;89.50
1786;DHT22;890;48.158;11.540;2023-11-21T11:17:46;11.40;89.10
1786;DHT22;890;48.158;11.540;2023-11-21T11:20:13;11.50;89.20
1786;DHT22;890;48.158;11.540;2023-11-21T11:22:44;11.60;88.50
1786;DHT22;890;48.158;11.540;2023-11-21T11:27:58;11.30;87.30
1786;DHT22;890;48.158;11.540;2023-11-21T11:31:04;11.20;87.30
1786;DHT22;890;48.158;11.540;2023-11-21T11:36:19;11.40;87.90
1786;DHT22;890;48.158;11.540;2023-11-21T11:38:47;11.40;87.40
1786;DHT22;890;48.158;11.540;2023-11-21T11:41:27;11.40;87.70
1786;DHT22;890;48.158;11.540;2023-11-21T11:43:55;11.40;87.50
1786;DHT22;890;48.158;11.540;2023-11-21T11:46:20;11.50;86.90
1786;DHT22;890;48.158;11.540;2023-11-21T11:49:05;11.50;86.30
1786;DHT22;890;48.158;11.540;2023-11-21T11:51:31;11.40;86.10
1786;DHT22;890;48.158;11.540;2023-11-21T11:53:56;11.20;86.10
1786;DHT22;890;48.158;11.540;2023-11-21T11:58:54;11.20;86.30
1786;DHT22;890;48.158;11.540;2023-11-21T12:01:20;11.20;86.00
1786;DHT22;890;48.158;11.540;2023-11-21T12:06:42;11.10;85.60
1786;DHT22;890;48.158;11.540;2023-11-21T12:09:21;11.20;85.70
1786;DHT22;890;48.158;11.540;2023-11-21T12:11:52;11.20;85.60
1786;DHT22;890;48.158;11.540;2023-11-21T12:14:18;11.30;85.90
1786;DHT22;890;48.158;11.540;2023-11-21T12:16:44;11.30;86.00
1786;DHT22;890;48.158;11.540;2023-11-21T12:19:12;10.00;84.00
1786;DHT22;890;48.158;11.540;2023-11-21T12:21:38;11.40;85.10
1786;DHT22;890;48.158;11.540;2023-11-21T12:24:06;11.40;85.20
1786;DHT22;890;48.158;11.540;2023-11-21T12:26:34;11.40;85.30
1786;DHT22;890;48.158;11.540;2023-11-21T12:29:01;11.50;85.80
1786;DHT22;890;48.158;11.540;2023-11-21T12:31:30;11.60;86.10
1786;DHT22;890;48.158;11.540;2023-11-21T12:33:55;11.70;86.10
1786;DHT22;890;48.158;11.540;2023-11-21T12:36:22;11.60;85.70
1786;DHT22;890;48.158;11.540;2023-11-21T12:38:47;11.60;85.40
1786;DHT22;890;48.158;11.540;2023-11-21T12:41:13;11.50;84.60
1786;DHT22;890;48.158;11.540;2023-11-21T12:43:41;11.40;85.00
1786;DHT22;890;48.158;11.540;2023-11-21T12:46:07;11.20;86.20
1786;DHT22;890;48.158;11.540;2023-11-21T12:48:37;10.80;85.60
1786;DHT22;890;48.158;11.540;2023-11-21T12:51:05;10.60;87.00
1786;DHT22;890;48.158;11.540;2023-11-21T12:53:32;10.50;88.20
1786;DHT22;890;48.158;11.540;2023-11-21T12:56:05;10.50;88.70
1786;DHT22;890;48.158;11.540;2023-11-21T12:58:31;10.50;89.50
1786;DHT22;890;48.158;11.540;2023-11-21T13:00:59;10.60;90.30
1786;DHT22;890;48.158;11.540;2023-11-21T13:03:25;10.60;90.50
1786;DHT22;890;48.158;11.540;2023-11-21T13:05:51;10.80;90.70
1786;DHT22;890;48.158;11.540;2023-11-21T13:08:21;10.90;90.70
1786;DHT22;890;48.158;11.540;2023-11-21T13:10:56;10.90;90.80
1786;DHT22;890;48.158;11.540;2023-11-21T13:13:23;11.00;91.10
1786;DHT22;890;48.158;11.540;2023-11-21T13:15:54;11.00;91.10
1786;DHT22;890;48.158;11.540;2023-11-21T13:18:24;10.90;91.40
1786;DHT22;890;48.158;11.540;2023-11-21T13:20:53;10.90;91.40
1786;DHT22;890;48.158;11.540;2023-11-21T13:23:18;11.00;91.60
1786;DHT22;890;48.158;11.540;2023-11-21T13:25:45;11.00;91.70
1786;DHT22;890;48.158;11.540;2023-11-21T13:28:13;11.00;91.80
1786;DHT22;890;48.158;11.540;2023-11-21T13:30:41;11.00;91.70
1786;DHT22;890;48.158;11.540;2023-11-21T13:33:07;11.00;91.70
1786;DHT22;890;48.158;11.540;2023-11-21T13:35:36;11.00;91.90
1786;DHT22;890;48.158;11.540;2023-11-21T13:38:16;11.00;92.00
1786;DHT22;890;48.158;11.540;2023-11-21T13:40:48;11.00;92.10
1786;DHT22;890;48.158;11.540;2023-11-21T13:43:16;10.90;92.10
1786;DHT22;890;48.158;11.540;2023-11-21T13:45:43;10.90;92.20
1786;DHT22;890;48.158;11.540;2023-11-21T13:48:10;10.90;92.40
1786;DHT22;890;48.158;11.540;2023-11-21T13:50:39;10.80;92.60
1786;DHT22;890;48.158;11.540;2023-11-21T13:53:10;10.60;92.50
1786;DHT22;890;48.158;11.540;2023-11-21T13:55:48;10.40;92.30
1786;DHT22;890;48.158;11.540;2023-11-21T13:58:15;10.20;92.20
1786;DHT22;890;48.158;11.540;2023-11-21T14:00:45;10.10;91.80
1786;DHT22;890;48.158;11.540;2023-11-21T14:03:14;10.00;91.90
1786;DHT22;890;48.158;11.540;2023-11-21T14:05:47;9.90;92.50
1786;DHT22;890;48.158;11.540;2023-11-21T14:08:25;9.80;92.60
1786;DHT22;890;48.158;11.540;2023-11-21T14:10:54;9.70;92.80
1786;DHT22;890;48.158;11.540;2023-11-21T14:13:23;9.70;93.00
1786;DHT22;890;48.158;11.540;2023-11-21T14:15:50;9.50;93.30
1786;DHT22;890;48.158;11.540;2023-11-21T14:18:18;9.40;93.50
1786;DHT22;890;48.158;11.540;2023-11-21T14:20:52;9.30;93.90
1786;DHT22;890;48.158;11.540;2023-11-21T14:23:18;9.30;94.20
1786;DHT22;890;48.158;11.540;2023-11-21T14:25:43;9.40;94.40
1786;DHT22;890;48.158;11.540;2023-11-21T14:28:09;9.40;94.50
1786;DHT22;890;48.158;11.540;2023-11-21T14:30:37;9.40;94.80
1786;DHT22;890;48.158;11.540;2023-11-21T14:33:05;9.40;94.80
1786;DHT22;890;48.158;11.540;2023-11-21T14:35:31;9.30;94.80
1786;DHT22;890;48.158;11.540;2023-11-21T14:37:58;9.30;94.80
1786;DHT22;890;48.158;11.540;2023-11-21T14:40:25;9.40;94.80
1786;DHT22;890;48.158;11.540;2023-11-21T14:42:51;9.40;94.80
1786;DHT22;890;48.158;11.540;2023-11-21T14:45:21;9.50;94.80
1786;DHT22;890;48.158;11.540;2023-11-21T14:47:49;9.50;94.70
1786;DHT22;890;48.158;11.540;2023-11-21T14:50:24;9.60;94.40
1786;DHT22;890;48.158;11.540;2023-11-21T14:53:11;9.60;94.30
1786;DHT22;890;48.158;11.540;2023-11-21T14:55:39;9.60;94.40
1786;DHT22;890;48.158;11.540;2023-11-21T14:58:05;9.60;94.60
1786;DHT22;890;48.158;11.540;2023-11-21T15:00:31;9.70;94.70
1786;DHT22;890;48.158;11.540;2023-11-21T15:03:00;9.60;94.60
1786;DHT22;890;48.158;11.540;2023-11-21T15:05:27;9.60;94.30
1786;DHT22;890;48.158;11.540;2023-11-21T15:07:54;9.60;94.60
1786;DHT22;890;48.158;11.540;2023-11-21T15:10:22;9.60;94.50
1786;DHT22;890;48.158;11.540;2023-11-21T15:13:03;9.60;94.70
1786;DHT22;890;48.158;11.540;2023-11-21T15:15:29;9.70;94.80
1786;DHT22;890;48.158;11.540;2023-11-21T15:17:57;9.70;94.90
1786;DHT22;890;48.158;11.540;2023-11-21T15:20:23;9.80;95.00
1786;DHT22;890;48.158;11.540;2023-11-21T15:22:48;9.90;95.10
1786;DHT22;890;48.158;11.540;2023-11-21T15:25:14;9.90;95.20
1786;DHT22;890;48.158;11.540;2023-11-21T15:27:40;9.90;95.20
1786;DHT22;890;48.158;11.540;2023-11-21T15:30:07;9.90;95.20
1786;DHT22;890;48.158;11.540;2023-11-21T15:32:32;10.00;94.90
1786;DHT22;890;48.158;11.540;2023-11-21T15:34:58;10.00;94.90
1786;DHT22;890;48.158;11.540;2023-11-21T15:37:23;10.00;94.90
1786;DHT22;890;48.158;11.540;2023-11-21T15:39:52;10.00;94.90
1786;DHT22;890;48.158;11.540;2023-11-21T15:42:18;9.90;95.30
1786;DHT22;890;48.158;11.540;2023-11-21T15:44:43;9.70;95.40
1786;DHT22;890;48.158;11.540;2023-11-21T15:47:09;9.50;95.40
1786;DHT22;890;48.158;11.540;2023-11-21T15:49:35;9.30;95.60
1786;DHT22;890;48.158;11.540;2023-11-21T15:52:02;9.00;95.40
1786;DHT22;890;48.158;11.540;2023-11-21T15:54:28;9.00;95.70
1786;DHT22;890;48.158;11.540;2023-11-21T15:56:55;9.00;96.10
1786;DHT22;890;48.158;11.540;2023-11-21T15:59:24;9.10;96.10
1786;DHT22;890;48.158;11.540;2023-11-21T16:01:55;9.10;96.10
1786;DHT22;890;48.158;11.540;2023-11-21T16:04:20;9.20;96.20
1786;DHT22;890;48.158;11.540;2023-11-21T16:06:47;9.20;96.20
1786;DHT22;890;48.158;11.540;2023-11-21T16:09:16;9.20;96.30
1786;DHT22;890;48.158;11.540;2023-11-21T16:11:51;9.20;96.40
1786;DHT22;890;48.158;11.540;2023-11-21T16:14:19;9.30;96.50
1786;DHT22;890;48.158;11.540;2023-11-21T16:16:46;9.30;96.50
1786;DHT22;890;48.158;11.540;2023-11-21T16:19:11;9.20;96.50
1786;DHT22;890;48.158;11.540;2023-11-21T16:21:37;9.20;96.50
1786;DHT22;890;48.158;11.540;2023-11-21T16:24:03;9.20;96.70